sensor_id;sensor_type;location;lat;lon;timestamp;P1;durP1;ratioP1;P2;durP2;ratioP2
43345;SDS011;28937;51.160;4.146;2022-07-05T00:00:57;5.65;;;3.13;;
43345;SDS011;28937;51.160;4.146;2022-07-05T00:03:23;4.55;;;2.90;;
43345;SDS011;28937;51.160;4.146;2022-07-05T00:05:49;4.95;;;2.42;;
43345;SDS011;28937;51.160;4.146;2022-07-05T00:08:15;8.13;;;2.72;;
43345;SDS011;28937;51.160;4.146;2022-07-05T00:10:41;4.07;;;2.58;;
43345;SDS011;28937;51.160;4.146;2022-07-05T00:13:07;5.93;;;2.42;;
43345;SDS011;28937;51.160;4.146;2022-07-05T00:15:32;4.53;;;2.38;;
43345;SDS011;28937;51.160;4.146;2022-07-05T00:17:58;3.40;;;2.40;;
43345;SDS011;28937;51.160;4.146;2022-07-05T00:20:24;7.03;;;2.78;;
43345;SDS011;28937;51.160;4.146;2022-07-05T00:22:50;5.32;;;2.20;;
43345;SDS011;28937;51.160;4.146;2022-07-05T00:25:15;5.18;;;2.58;;
43345;SDS011;28937;51.160;4.146;2022-07-05T00:27:41;6.75;;;2.65;;
43345;SDS011;28937;51.160;4.146;2022-07-05T00:30:07;5.93;;;2.38;;
43345;SDS011;28937;51.160;4.146;2022-07-05T00:32:33;4.10;;;2.30;;
43345;SDS011;28937;51.160;4.146;2022-07-05T00:34:59;5.22;;;2.67;;
43345;SDS011;28937;51.160;4.146;2022-07-05T00:37:24;9.82;;;2.65;;
43345;SDS011;28937;51.160;4.146;2022-07-05T00:39:50;5.70;;;2.75;;
43345;SDS011;28937;51.160;4.146;2022-07-05T00:42:16;4.55;;;2.60;;
43345;SDS011;28937;51.160;4.146;2022-07-05T00:44:42;8.18;;;2.72;;
43345;SDS011;28937;51.160;4.146;2022-07-05T00:47:08;9.13;;;2.65;;
43345;SDS011;28937;51.160;4.146;2022-07-05T00:49:36;4.10;;;2.28;;
43345;SDS011;28937;51.160;4.146;2022-07-05T00:52:03;5.15;;;2.40;;
43345;SDS011;28937;51.160;4.146;2022-07-05T00:54:30;7.05;;;2.70;;
43345;SDS011;28937;51.160;4.146;2022-07-05T00:56:58;9.43;;;2.70;;
43345;SDS011;28937;51.160;4.146;2022-07-05T00:59:24;7.82;;;2.78;;
43345;SDS011;28937;51.160;4.146;2022-07-05T01:01:50;5.50;;;2.28;;
43345;SDS011;28937;51.160;4.146;2022-07-05T01:04:16;3.33;;;1.92;;
43345;SDS011;28937;51.160;4.146;2022-07-05T01:06:42;5.22;;;2.45;;
43345;SDS011;28937;51.160;4.146;2022-07-05T01:09:11;6.63;;;2.28;;
43345;SDS011;28937;51.160;4.146;2022-07-05T01:11:48;7.32;;;2.97;;
43345;SDS011;28937;51.160;4.146;2022-07-05T01:14:21;6.18;;;2.83;;
43345;SDS011;28937;51.160;4.146;2022-07-05T01:16:51;3.50;;;2.60;;
43345;SDS011;28937;51.160;4.146;2022-07-05T01:19:18;6.93;;;3.00;;
43345;SDS011;28937;51.160;4.146;2022-07-05T01:21:46;6.68;;;3.00;;
43345;SDS011;28937;51.160;4.146;2022-07-05T01:24:13;7.85;;;2.95;;
43345;SDS011;28937;51.160;4.146;2022-07-05T01:26:41;5.18;;;2.45;;
43345;SDS011;28937;51.160;4.146;2022-07-05T01:29:08;5.07;;;2.22;;
43345;SDS011;28937;51.160;4.146;2022-07-05T01:31:37;4.55;;;2.00;;
43345;SDS011;28937;51.160;4.146;2022-07-05T01:34:04;8.73;;;3.03;;
43345;SDS011;28937;51.160;4.146;2022-07-05T01:36:31;5.13;;;2.40;;
43345;SDS011;28937;51.160;4.146;2022-07-05T01:38:58;6.18;;;2.67;;
43345;SDS011;28937;51.160;4.146;2022-07-05T01:41:25;5.10;;;2.40;;
43345;SDS011;28937;51.160;4.146;2022-07-05T01:43:51;3.67;;;2.50;;
43345;SDS011;28937;51.160;4.146;2022-07-05T01:46:16;5.60;;;2.92;;
43345;SDS011;28937;51.160;4.146;2022-07-05T01:48:46;10.05;;;3.28;;
43345;SDS011;28937;51.160;4.146;2022-07-05T01:51:16;7.32;;;3.30;;
43345;SDS011;28937;51.160;4.146;2022-07-05T01:53:47;6.72;;;3.42;;
43345;SDS011;28937;51.160;4.146;2022-07-05T01:56:16;6.93;;;2.75;;
43345;SDS011;28937;51.160;4.146;2022-07-05T01:58:41;6.47;;;3.35;;
43345;SDS011;28937;51.160;4.146;2022-07-05T02:01:08;7.75;;;3.60;;
43345;SDS011;28937;51.160;4.146;2022-07-05T02:03:33;14.65;;;3.45;;
43345;SDS011;28937;51.160;4.146;2022-07-05T02:06:00;10.00;;;3.65;;
43345;SDS011;28937;51.160;4.146;2022-07-05T02:08:29;7.55;;;3.38;;
43345;SDS011;28937;51.160;4.146;2022-07-05T02:10:55;6.15;;;3.35;;
43345;SDS011;28937;51.160;4.146;2022-07-05T02:13:21;6.70;;;3.83;;
43345;SDS011;28937;51.160;4.146;2022-07-05T02:15:47;5.10;;;2.90;;
43345;SDS011;28937;51.160;4.146;2022-07-05T02:18:13;8.18;;;3.60;;
43345;SDS011;28937;51.160;4.146;2022-07-05T02:20:39;9.48;;;3.55;;
43345;SDS011;28937;51.160;4.146;2022-07-05T02:23:05;11.68;;;3.65;;
43345;SDS011;28937;51.160;4.146;2022-07-05T02:25:32;10.13;;;3.65;;
43345;SDS011;28937;51.160;4.146;2022-07-05T02:27:58;8.77;;;3.28;;
43345;SDS011;28937;51.160;4.146;2022-07-05T02:30:23;6.95;;;4.00;;
43345;SDS011;28937;51.160;4.146;2022-07-05T02:32:49;5.03;;;3.47;;
43345;SDS011;28937;51.160;4.146;2022-07-05T02:35:14;6.82;;;3.00;;
43345;SDS011;28937;51.160;4.146;2022-07-05T02:37:40;7.28;;;3.10;;
43345;SDS011;28937;51.160;4.146;2022-07-05T02:40:07;7.93;;;3.58;;
43345;SDS011;28937;51.160;4.146;2022-07-05T02:42:33;7.50;;;3.65;;
43345;SDS011;28937;51.160;4.146;2022-07-05T02:44:59;7.85;;;3.63;;
43345;SDS011;28937;51.160;4.146;2022-07-05T02:47:24;4.68;;;3.05;;
43345;SDS011;28937;51.160;4.146;2022-07-05T02:49:50;9.90;;;3.55;;
43345;SDS011;28937;51.160;4.146;2022-07-05T02:52:17;6.18;;;3.25;;
43345;SDS011;28937;51.160;4.146;2022-07-05T02:54:42;7.40;;;3.78;;
43345;SDS011;28937;51.160;4.146;2022-07-05T02:57:08;7.97;;;3.33;;
43345;SDS011;28937;51.160;4.146;2022-07-05T02:59:33;6.93;;;3.28;;
43345;SDS011;28937;51.160;4.146;2022-07-05T03:01:59;8.95;;;3.65;;
43345;SDS011;28937;51.160;4.146;2022-07-05T03:04:24;5.93;;;3.00;;
43345;SDS011;28937;51.160;4.146;2022-07-05T03:06:50;10.32;;;3.70;;
43345;SDS011;28937;51.160;4.146;2022-07-05T03:09:15;8.60;;;3.67;;
43345;SDS011;28937;51.160;4.146;2022-07-05T03:11:41;6.78;;;3.10;;
43345;SDS011;28937;51.160;4.146;2022-07-05T03:14:06;6.18;;;3.53;;
43345;SDS011;28937;51.160;4.146;2022-07-05T03:16:32;7.88;;;3.47;;
43345;SDS011;28937;51.160;4.146;2022-07-05T03:18:58;6.28;;;3.33;;
43345;SDS011;28937;51.160;4.146;2022-07-05T03:21:24;4.38;;;3.53;;
43345;SDS011;28937;51.160;4.146;2022-07-05T03:23:50;9.77;;;3.85;;
43345;SDS011;28937;51.160;4.146;2022-07-05T03:26:15;9.50;;;3.53;;
43345;SDS011;28937;51.160;4.146;2022-07-05T03:28:41;7.18;;;3.20;;
43345;SDS011;28937;51.160;4.146;2022-07-05T03:31:06;9.00;;;3.53;;
43345;SDS011;28937;51.160;4.146;2022-07-05T03:33:32;8.48;;;3.80;;
43345;SDS011;28937;51.160;4.146;2022-07-05T03:35:57;7.07;;;3.38;;
43345;SDS011;28937;51.160;4.146;2022-07-05T03:38:23;5.95;;;3.42;;
43345;SDS011;28937;51.160;4.146;2022-07-05T03:40:48;7.90;;;3.63;;
43345;SDS011;28937;51.160;4.146;2022-07-05T03:43:14;4.70;;;3.60;;
43345;SDS011;28937;51.160;4.146;2022-07-05T03:45:40;7.30;;;3.80;;
43345;SDS011;28937;51.160;4.146;2022-07-05T03:48:06;8.65;;;3.83;;
43345;SDS011;28937;51.160;4.146;2022-07-05T03:50:31;11.82;;;3.95;;
43345;SDS011;28937;51.160;4.146;2022-07-05T03:52:58;7.03;;;3.67;;
43345;SDS011;28937;51.160;4.146;2022-07-05T03:55:24;8.23;;;3.97;;
43345;SDS011;28937;51.160;4.146;2022-07-05T03:57:49;8.77;;;4.30;;
43345;SDS011;28937;51.160;4.146;2022-07-05T04:00:15;10.27;;;3.90;;
43345;SDS011;28937;51.160;4.146;2022-07-05T04:02:41;6.60;;;4.03;;
43345;SDS011;28937;51.160;4.146;2022-07-05T04:05:06;9.52;;;3.78;;
43345;SDS011;28937;51.160;4.146;2022-07-05T04:07:32;7.70;;;4.07;;
43345;SDS011;28937;51.160;4.146;2022-07-05T04:09:58;7.15;;;3.90;;
43345;SDS011;28937;51.160;4.146;2022-07-05T04:12:24;6.10;;;4.00;;
43345;SDS011;28937;51.160;4.146;2022-07-05T04:14:50;6.55;;;4.10;;
43345;SDS011;28937;51.160;4.146;2022-07-05T04:17:16;7.80;;;3.88;;
43345;SDS011;28937;51.160;4.146;2022-07-05T04:19:41;6.15;;;3.70;;
43345;SDS011;28937;51.160;4.146;2022-07-05T04:22:07;8.68;;;4.75;;
43345;SDS011;28937;51.160;4.146;2022-07-05T04:24:32;6.72;;;3.80;;
43345;SDS011;28937;51.160;4.146;2022-07-05T04:27:18;8.77;;;3.92;;
43345;SDS011;28937;51.160;4.146;2022-07-05T04:29:43;12.45;;;5.15;;
43345;SDS011;28937;51.160;4.146;2022-07-05T04:32:09;11.25;;;4.10;;
43345;SDS011;28937;51.160;4.146;2022-07-05T04:34:34;8.95;;;4.43;;
43345;SDS011;28937;51.160;4.146;2022-07-05T04:37:00;8.07;;;4.32;;
43345;SDS011;28937;51.160;4.146;2022-07-05T04:39:25;9.10;;;3.90;;
43345;SDS011;28937;51.160;4.146;2022-07-05T04:41:51;9.65;;;3.90;;
43345;SDS011;28937;51.160;4.146;2022-07-05T04:44:16;11.70;;;4.30;;
43345;SDS011;28937;51.160;4.146;2022-07-05T04:46:42;6.88;;;4.63;;
43345;SDS011;28937;51.160;4.146;2022-07-05T04:49:07;8.38;;;4.68;;
43345;SDS011;28937;51.160;4.146;2022-07-05T04:51:33;8.95;;;4.20;;
43345;SDS011;28937;51.160;4.146;2022-07-05T04:53:59;9.57;;;4.75;;
43345;SDS011;28937;51.160;4.146;2022-07-05T04:56:24;10.55;;;5.05;;
43345;SDS011;28937;51.160;4.146;2022-07-05T04:58:50;8.88;;;4.45;;
43345;SDS011;28937;51.160;4.146;2022-07-05T05:01:15;5.82;;;3.95;;
43345;SDS011;28937;51.160;4.146;2022-07-05T05:03:41;7.93;;;4.55;;
43345;SDS011;28937;51.160;4.146;2022-07-05T05:06:07;7.63;;;4.07;;
43345;SDS011;28937;51.160;4.146;2022-07-05T05:08:32;7.35;;;4.22;;
43345;SDS011;28937;51.160;4.146;2022-07-05T05:10:58;7.40;;;3.97;;
43345;SDS011;28937;51.160;4.146;2022-07-05T05:13:23;8.43;;;4.35;;
43345;SDS011;28937;51.160;4.146;2022-07-05T05:15:49;6.95;;;4.40;;
43345;SDS011;28937;51.160;4.146;2022-07-05T05:18:15;8.05;;;4.30;;
43345;SDS011;28937;51.160;4.146;2022-07-05T05:20:43;6.28;;;3.95;;
43345;SDS011;28937;51.160;4.146;2022-07-05T05:23:09;5.85;;;4.05;;
43345;SDS011;28937;51.160;4.146;2022-07-05T05:25:34;7.90;;;4.70;;
43345;SDS011;28937;51.160;4.146;2022-07-05T05:28:01;7.10;;;4.25;;
43345;SDS011;28937;51.160;4.146;2022-07-05T05:30:27;4.95;;;4.00;;
43345;SDS011;28937;51.160;4.146;2022-07-05T05:32:52;6.65;;;4.05;;
43345;SDS011;28937;51.160;4.146;2022-07-05T05:35:18;9.68;;;4.90;;
43345;SDS011;28937;51.160;4.146;2022-07-05T05:40:18;10.60;;;4.90;;
43345;SDS011;28937;51.160;4.146;2022-07-05T05:42:44;10.38;;;4.80;;
43345;SDS011;28937;51.160;4.146;2022-07-05T05:45:11;9.70;;;5.15;;
43345;SDS011;28937;51.160;4.146;2022-07-05T05:47:47;13.82;;;4.97;;
43345;SDS011;28937;51.160;4.146;2022-07-05T05:50:21;7.93;;;4.53;;
43345;SDS011;28937;51.160;4.146;2022-07-05T05:52:48;9.15;;;4.68;;
43345;SDS011;28937;51.160;4.146;2022-07-05T05:55:14;11.40;;;5.30;;
43345;SDS011;28937;51.160;4.146;2022-07-05T05:57:40;12.18;;;4.43;;
43345;SDS011;28937;51.160;4.146;2022-07-05T06:00:05;9.45;;;4.82;;
43345;SDS011;28937;51.160;4.146;2022-07-05T06:02:32;9.55;;;4.97;;
43345;SDS011;28937;51.160;4.146;2022-07-05T06:04:58;13.93;;;6.05;;
43345;SDS011;28937;51.160;4.146;2022-07-05T06:07:24;9.98;;;5.55;;
43345;SDS011;28937;51.160;4.146;2022-07-05T06:09:49;12.35;;;6.53;;
43345;SDS011;28937;51.160;4.146;2022-07-05T06:12:15;11.50;;;5.47;;
43345;SDS011;28937;51.160;4.146;2022-07-05T06:14:40;14.50;;;6.00;;
43345;SDS011;28937;51.160;4.146;2022-07-05T06:17:06;9.88;;;5.97;;
43345;SDS011;28937;51.160;4.146;2022-07-05T06:19:31;15.13;;;6.95;;
43345;SDS011;28937;51.160;4.146;2022-07-05T06:21:57;15.10;;;7.90;;
43345;SDS011;28937;51.160;4.146;2022-07-05T06:24:23;16.75;;;6.97;;
43345;SDS011;28937;51.160;4.146;2022-07-05T06:26:48;16.10;;;7.47;;
43345;SDS011;28937;51.160;4.146;2022-07-05T06:29:14;20.23;;;8.25;;
43345;SDS011;28937;51.160;4.146;2022-07-05T06:31:39;16.58;;;7.55;;
43345;SDS011;28937;51.160;4.146;2022-07-05T06:34:05;18.30;;;8.35;;
43345;SDS011;28937;51.160;4.146;2022-07-05T06:36:31;17.67;;;8.93;;
43345;SDS011;28937;51.160;4.146;2022-07-05T06:38:56;19.38;;;8.85;;
43345;SDS011;28937;51.160;4.146;2022-07-05T06:41:22;14.15;;;6.57;;
43345;SDS011;28937;51.160;4.146;2022-07-05T06:43:47;13.13;;;7.00;;
43345;SDS011;28937;51.160;4.146;2022-07-05T06:46:13;13.10;;;6.47;;
43345;SDS011;28937;51.160;4.146;2022-07-05T06:48:38;12.90;;;7.05;;
43345;SDS011;28937;51.160;4.146;2022-07-05T06:51:04;14.50;;;6.80;;
43345;SDS011;28937;51.160;4.146;2022-07-05T06:53:30;12.98;;;6.28;;
43345;SDS011;28937;51.160;4.146;2022-07-05T06:55:55;12.10;;;5.68;;
43345;SDS011;28937;51.160;4.146;2022-07-05T06:58:21;10.68;;;5.72;;
43345;SDS011;28937;51.160;4.146;2022-07-05T07:00:47;15.80;;;6.07;;
43345;SDS011;28937;51.160;4.146;2022-07-05T07:03:12;15.75;;;7.35;;
43345;SDS011;28937;51.160;4.146;2022-07-05T07:05:38;14.02;;;8.45;;
43345;SDS011;28937;51.160;4.146;2022-07-05T07:08:03;16.20;;;8.32;;
43345;SDS011;28937;51.160;4.146;2022-07-05T07:10:47;15.55;;;8.75;;
43345;SDS011;28937;51.160;4.146;2022-07-05T07:13:13;15.25;;;8.32;;
43345;SDS011;28937;51.160;4.146;2022-07-05T07:15:39;13.40;;;7.70;;
43345;SDS011;28937;51.160;4.146;2022-07-05T07:18:05;15.48;;;7.97;;
43345;SDS011;28937;51.160;4.146;2022-07-05T07:20:31;16.77;;;7.63;;
43345;SDS011;28937;51.160;4.146;2022-07-05T07:22:57;12.68;;;6.70;;
43345;SDS011;28937;51.160;4.146;2022-07-05T07:25:22;13.80;;;6.00;;
43345;SDS011;28937;51.160;4.146;2022-07-05T07:27:49;12.05;;;6.20;;
43345;SDS011;28937;51.160;4.146;2022-07-05T07:30:20;10.93;;;5.72;;
43345;SDS011;28937;51.160;4.146;2022-07-05T07:32:50;13.25;;;5.70;;
43345;SDS011;28937;51.160;4.146;2022-07-05T07:35:17;10.02;;;5.88;;
43345;SDS011;28937;51.160;4.146;2022-07-05T07:37:42;9.50;;;5.43;;
43345;SDS011;28937;51.160;4.146;2022-07-05T07:40:08;12.40;;;5.70;;
43345;SDS011;28937;51.160;4.146;2022-07-05T07:42:35;13.55;;;6.10;;
43345;SDS011;28937;51.160;4.146;2022-07-05T07:45:01;13.25;;;5.63;;
43345;SDS011;28937;51.160;4.146;2022-07-05T07:47:29;8.80;;;5.05;;
43345;SDS011;28937;51.160;4.146;2022-07-05T07:49:58;12.55;;;5.32;;
43345;SDS011;28937;51.160;4.146;2022-07-05T07:52:23;9.63;;;4.97;;
43345;SDS011;28937;51.160;4.146;2022-07-05T07:54:49;10.48;;;4.20;;
43345;SDS011;28937;51.160;4.146;2022-07-05T07:57:15;11.63;;;4.35;;
43345;SDS011;28937;51.160;4.146;2022-07-05T07:59:40;9.57;;;4.72;;
43345;SDS011;28937;51.160;4.146;2022-07-05T08:02:06;10.00;;;4.28;;
43345;SDS011;28937;51.160;4.146;2022-07-05T08:04:32;13.50;;;5.18;;
43345;SDS011;28937;51.160;4.146;2022-07-05T08:06:58;7.88;;;3.33;;
43345;SDS011;28937;51.160;4.146;2022-07-05T08:09:24;11.77;;;4.88;;
43345;SDS011;28937;51.160;4.146;2022-07-05T08:11:49;11.25;;;4.28;;
43345;SDS011;28937;51.160;4.146;2022-07-05T08:14:15;7.45;;;2.80;;
43345;SDS011;28937;51.160;4.146;2022-07-05T08:16:42;5.68;;;2.45;;
43345;SDS011;28937;51.160;4.146;2022-07-05T08:19:08;7.80;;;2.90;;
43345;SDS011;28937;51.160;4.146;2022-07-05T08:21:52;10.00;;;3.85;;
43345;SDS011;28937;51.160;4.146;2022-07-05T08:24:17;10.75;;;4.07;;
43345;SDS011;28937;51.160;4.146;2022-07-05T08:26:43;7.32;;;3.10;;
43345;SDS011;28937;51.160;4.146;2022-07-05T08:29:09;6.68;;;3.05;;
43345;SDS011;28937;51.160;4.146;2022-07-05T08:31:38;7.70;;;3.05;;
43345;SDS011;28937;51.160;4.146;2022-07-05T08:34:05;6.35;;;2.70;;
43345;SDS011;28937;51.160;4.146;2022-07-05T08:36:30;5.03;;;2.20;;
43345;SDS011;28937;51.160;4.146;2022-07-05T08:38:56;6.90;;;2.83;;
43345;SDS011;28937;51.160;4.146;2022-07-05T08:41:22;9.70;;;2.80;;
43345;SDS011;28937;51.160;4.146;2022-07-05T08:43:49;5.43;;;2.58;;
43345;SDS011;28937;51.160;4.146;2022-07-05T08:46:16;10.90;;;2.60;;
43345;SDS011;28937;51.160;4.146;2022-07-05T08:48:43;8.70;;;2.55;;
43345;SDS011;28937;51.160;4.146;2022-07-05T08:51:12;9.10;;;2.97;;
43345;SDS011;28937;51.160;4.146;2022-07-05T08:53:39;7.95;;;2.85;;
43345;SDS011;28937;51.160;4.146;2022-07-05T08:56:07;8.55;;;2.58;;
43345;SDS011;28937;51.160;4.146;2022-07-05T08:58:34;6.60;;;1.92;;
43345;SDS011;28937;51.160;4.146;2022-07-05T09:01:00;7.60;;;2.28;;
43345;SDS011;28937;51.160;4.146;2022-07-05T09:03:34;8.00;;;2.13;;
43345;SDS011;28937;51.160;4.146;2022-07-05T09:06:12;5.85;;;2.17;;
43345;SDS011;28937;51.160;4.146;2022-07-05T09:08:41;7.03;;;1.73;;
43345;SDS011;28937;51.160;4.146;2022-07-05T09:11:07;4.57;;;2.35;;
43345;SDS011;28937;51.160;4.146;2022-07-05T09:13:38;5.90;;;2.80;;
43345;SDS011;28937;51.160;4.146;2022-07-05T09:16:06;6.07;;;2.60;;
43345;SDS011;28937;51.160;4.146;2022-07-05T09:18:42;7.00;;;2.70;;
43345;SDS011;28937;51.160;4.146;2022-07-05T09:23:45;4.80;;;2.15;;
43345;SDS011;28937;51.160;4.146;2022-07-05T09:28:58;9.27;;;3.15;;
43345;SDS011;28937;51.160;4.146;2022-07-05T09:31:34;5.53;;;2.72;;
43345;SDS011;28937;51.160;4.146;2022-07-05T09:34:04;4.35;;;2.22;;
43345;SDS011;28937;51.160;4.146;2022-07-05T09:39:18;7.28;;;2.67;;
43345;SDS011;28937;51.160;4.146;2022-07-05T09:42:12;4.50;;;1.85;;
43345;SDS011;28937;51.160;4.146;2022-07-05T09:44:49;7.70;;;2.55;;
43345;SDS011;28937;51.160;4.146;2022-07-05T09:47:17;6.18;;;2.47;;
43345;SDS011;28937;51.160;4.146;2022-07-05T09:49:44;6.15;;;2.05;;
43345;SDS011;28937;51.160;4.146;2022-07-05T09:52:26;8.55;;;2.67;;
43345;SDS011;28937;51.160;4.146;2022-07-05T09:55:14;7.47;;;2.42;;
43345;SDS011;28937;51.160;4.146;2022-07-05T09:57:41;3.95;;;2.15;;
43345;SDS011;28937;51.160;4.146;2022-07-05T10:00:09;4.25;;;1.33;;
43345;SDS011;28937;51.160;4.146;2022-07-05T10:02:40;4.95;;;2.35;;
43345;SDS011;28937;51.160;4.146;2022-07-05T10:07:59;2.70;;;1.55;;
43345;SDS011;28937;51.160;4.146;2022-07-05T10:10:26;4.05;;;1.33;;
43345;SDS011;28937;51.160;4.146;2022-07-05T10:12:55;4.25;;;1.60;;
43345;SDS011;28937;51.160;4.146;2022-07-05T10:15:26;2.37;;;1.07;;
43345;SDS011;28937;51.160;4.146;2022-07-05T10:18:15;4.70;;;1.33;;
43345;SDS011;28937;51.160;4.146;2022-07-05T10:20:45;6.07;;;1.50;;
43345;SDS011;28937;51.160;4.146;2022-07-05T10:25:38;2.38;;;1.00;;
43345;SDS011;28937;51.160;4.146;2022-07-05T10:28:05;3.33;;;1.35;;
43345;SDS011;28937;51.160;4.146;2022-07-05T10:30:32;2.97;;;1.25;;
43345;SDS011;28937;51.160;4.146;2022-07-05T10:32:59;3.92;;;1.77;;
43345;SDS011;28937;51.160;4.146;2022-07-05T10:35:27;4.35;;;1.30;;
43345;SDS011;28937;51.160;4.146;2022-07-05T10:37:52;6.38;;;1.40;;
43345;SDS011;28937;51.160;4.146;2022-07-05T10:40:19;3.35;;;1.02;;
43345;SDS011;28937;51.160;4.146;2022-07-05T10:42:51;4.25;;;1.33;;
43345;SDS011;28937;51.160;4.146;2022-07-05T10:45:31;3.10;;;1.10;;
43345;SDS011;28937;51.160;4.146;2022-07-05T10:50:57;7.22;;;1.40;;
43345;SDS011;28937;51.160;4.146;2022-07-05T10:53:24;4.50;;;1.48;;
43345;SDS011;28937;51.160;4.146;2022-07-05T10:58:36;3.08;;;1.10;;
43345;SDS011;28937;51.160;4.146;2022-07-05T11:06:04;2.72;;;1.08;;
43345;SDS011;28937;51.160;4.146;2022-07-05T11:08:31;6.63;;;1.10;;
43345;SDS011;28937;51.160;4.146;2022-07-05T11:11:32;3.28;;;0.80;;
43345;SDS011;28937;51.160;4.146;2022-07-05T11:14:02;3.63;;;0.70;;
43345;SDS011;28937;51.160;4.146;2022-07-05T11:20:25;4.07;;;0.80;;
43345;SDS011;28937;51.160;4.146;2022-07-05T11:22:33;1.88;;;0.70;;
43345;SDS011;28937;51.160;4.146;2022-07-05T11:24:59;4.25;;;0.85;;
43345;SDS011;28937;51.160;4.146;2022-07-05T11:27:30;2.70;;;0.90;;
43345;SDS011;28937;51.160;4.146;2022-07-05T11:29:57;3.22;;;0.90;;
43345;SDS011;28937;51.160;4.146;2022-07-05T11:32:34;2.03;;;0.80;;
43345;SDS011;28937;51.160;4.146;2022-07-05T11:35:17;4.68;;;0.68;;
43345;SDS011;28937;51.160;4.146;2022-07-05T11:42:47;2.05;;;0.50;;
43345;SDS011;28937;51.160;4.146;2022-07-05T11:45:14;2.83;;;0.60;;
43345;SDS011;28937;51.160;4.146;2022-07-05T11:47:40;4.15;;;0.80;;
43345;SDS011;28937;51.160;4.146;2022-07-05T11:50:06;3.33;;;0.70;;
43345;SDS011;28937;51.160;4.146;2022-07-05T11:52:34;1.48;;;0.50;;
43345;SDS011;28937;51.160;4.146;2022-07-05T11:55:01;5.15;;;0.88;;
43345;SDS011;28937;51.160;4.146;2022-07-05T11:57:36;2.90;;;0.70;;
43345;SDS011;28937;51.160;4.146;2022-07-05T12:00:03;4.22;;;0.63;;
43345;SDS011;28937;51.160;4.146;2022-07-05T12:02:29;4.80;;;0.77;;
43345;SDS011;28937;51.160;4.146;2022-07-05T12:04:55;3.83;;;0.77;;
43345;SDS011;28937;51.160;4.146;2022-07-05T12:07:29;2.10;;;0.82;;
43345;SDS011;28937;51.160;4.146;2022-07-05T12:09:56;2.25;;;0.63;;
43345;SDS011;28937;51.160;4.146;2022-07-05T12:12:41;3.72;;;1.00;;
43345;SDS011;28937;51.160;4.146;2022-07-05T12:15:07;4.43;;;0.95;;
43345;SDS011;28937;51.160;4.146;2022-07-05T12:17:41;3.63;;;0.70;;
43345;SDS011;28937;51.160;4.146;2022-07-05T12:20:11;3.58;;;0.82;;
43345;SDS011;28937;51.160;4.146;2022-07-05T12:22:42;2.95;;;0.77;;
43345;SDS011;28937;51.160;4.146;2022-07-05T12:25:13;3.03;;;0.70;;
43345;SDS011;28937;51.160;4.146;2022-07-05T12:27:40;2.05;;;0.55;;
43345;SDS011;28937;51.160;4.146;2022-07-05T12:30:07;4.15;;;0.68;;
43345;SDS011;28937;51.160;4.146;2022-07-05T12:35:44;3.10;;;0.70;;
43345;SDS011;28937;51.160;4.146;2022-07-05T12:38:12;4.40;;;0.80;;
43345;SDS011;28937;51.160;4.146;2022-07-05T12:40:40;3.13;;;0.60;;
43345;SDS011;28937;51.160;4.146;2022-07-05T12:43:10;6.07;;;0.73;;
43345;SDS011;28937;51.160;4.146;2022-07-05T12:45:36;2.63;;;0.65;;
43345;SDS011;28937;51.160;4.146;2022-07-05T12:48:04;3.58;;;0.90;;
43345;SDS011;28937;51.160;4.146;2022-07-05T12:53:30;1.30;;;0.50;;
43345;SDS011;28937;51.160;4.146;2022-07-05T12:56:14;3.03;;;0.52;;
43345;SDS011;28937;51.160;4.146;2022-07-05T12:59:02;3.38;;;0.70;;
43345;SDS011;28937;51.160;4.146;2022-07-05T13:01:33;3.63;;;0.70;;
43345;SDS011;28937;51.160;4.146;2022-07-05T13:04:06;2.53;;;0.55;;
43345;SDS011;28937;51.160;4.146;2022-07-05T13:06:42;3.22;;;0.50;;
43345;SDS011;28937;51.160;4.146;2022-07-05T13:09:08;1.58;;;0.50;;
43345;SDS011;28937;51.160;4.146;2022-07-05T13:11:34;1.58;;;0.40;;
43345;SDS011;28937;51.160;4.146;2022-07-05T13:14:00;2.90;;;0.63;;
43345;SDS011;28937;51.160;4.146;2022-07-05T13:16:26;6.90;;;0.70;;
43345;SDS011;28937;51.160;4.146;2022-07-05T13:18:51;1.92;;;0.60;;
43345;SDS011;28937;51.160;4.146;2022-07-05T13:21:17;4.15;;;0.68;;
43345;SDS011;28937;51.160;4.146;2022-07-05T13:23:42;5.47;;;0.70;;
43345;SDS011;28937;51.160;4.146;2022-07-05T13:26:08;2.92;;;0.50;;
43345;SDS011;28937;51.160;4.146;2022-07-05T13:28:33;4.57;;;0.47;;
43345;SDS011;28937;51.160;4.146;2022-07-05T13:30:59;4.00;;;0.60;;
43345;SDS011;28937;51.160;4.146;2022-07-05T13:33:25;5.13;;;0.70;;
43345;SDS011;28937;51.160;4.146;2022-07-05T13:35:50;2.78;;;0.65;;
43345;SDS011;28937;51.160;4.146;2022-07-05T13:38:16;4.78;;;1.00;;
43345;SDS011;28937;51.160;4.146;2022-07-05T13:40:42;4.03;;;0.90;;
43345;SDS011;28937;51.160;4.146;2022-07-05T13:43:07;2.28;;;0.50;;
43345;SDS011;28937;51.160;4.146;2022-07-05T13:45:33;2.03;;;0.63;;
43345;SDS011;28937;51.160;4.146;2022-07-05T13:47:58;3.45;;;0.65;;
43345;SDS011;28937;51.160;4.146;2022-07-05T13:50:24;2.53;;;0.30;;
43345;SDS011;28937;51.160;4.146;2022-07-05T13:52:59;2.00;;;0.50;;
43345;SDS011;28937;51.160;4.146;2022-07-05T13:55:26;1.27;;;0.35;;
43345;SDS011;28937;51.160;4.146;2022-07-05T13:57:51;2.15;;;0.52;;
43345;SDS011;28937;51.160;4.146;2022-07-05T14:00:18;3.65;;;0.45;;
43345;SDS011;28937;51.160;4.146;2022-07-05T14:02:44;1.25;;;0.35;;
43345;SDS011;28937;51.160;4.146;2022-07-05T14:05:10;5.55;;;0.63;;
43345;SDS011;28937;51.160;4.146;2022-07-05T14:07:35;5.78;;;0.50;;
43345;SDS011;28937;51.160;4.146;2022-07-05T14:10:02;3.65;;;0.63;;
43345;SDS011;28937;51.160;4.146;2022-07-05T14:12:28;2.30;;;0.40;;
43345;SDS011;28937;51.160;4.146;2022-07-05T14:14:54;3.88;;;0.65;;
43345;SDS011;28937;51.160;4.146;2022-07-05T14:17:20;2.05;;;0.38;;
43345;SDS011;28937;51.160;4.146;2022-07-05T14:19:46;3.40;;;0.50;;
43345;SDS011;28937;51.160;4.146;2022-07-05T14:22:11;0.90;;;0.30;;
43345;SDS011;28937;51.160;4.146;2022-07-05T14:24:37;1.50;;;0.52;;
43345;SDS011;28937;51.160;4.146;2022-07-05T14:27:03;2.25;;;0.32;;
43345;SDS011;28937;51.160;4.146;2022-07-05T14:29:32;3.97;;;0.47;;
43345;SDS011;28937;51.160;4.146;2022-07-05T14:31:58;3.10;;;0.43;;
43345;SDS011;28937;51.160;4.146;2022-07-05T14:34:23;1.08;;;0.30;;
43345;SDS011;28937;51.160;4.146;2022-07-05T14:36:49;1.27;;;0.20;;
43345;SDS011;28937;51.160;4.146;2022-07-05T14:39:14;3.35;;;0.60;;
43345;SDS011;28937;51.160;4.146;2022-07-05T14:41:40;1.90;;;0.50;;
43345;SDS011;28937;51.160;4.146;2022-07-05T14:44:05;3.90;;;0.50;;
43345;SDS011;28937;51.160;4.146;2022-07-05T14:46:31;1.58;;;0.40;;
43345;SDS011;28937;51.160;4.146;2022-07-05T14:48:56;3.17;;;0.70;;
43345;SDS011;28937;51.160;4.146;2022-07-05T14:51:22;2.80;;;0.70;;
43345;SDS011;28937;51.160;4.146;2022-07-05T14:53:47;4.35;;;0.93;;
43345;SDS011;28937;51.160;4.146;2022-07-05T14:56:13;2.95;;;0.60;;
43345;SDS011;28937;51.160;4.146;2022-07-05T14:58:40;3.72;;;0.50;;
43345;SDS011;28937;51.160;4.146;2022-07-05T15:01:05;1.45;;;0.43;;
43345;SDS011;28937;51.160;4.146;2022-07-05T15:03:31;3.88;;;0.70;;
43345;SDS011;28937;51.160;4.146;2022-07-05T15:05:57;1.63;;;0.50;;
43345;SDS011;28937;51.160;4.146;2022-07-05T15:08:22;1.50;;;0.57;;
43345;SDS011;28937;51.160;4.146;2022-07-05T15:10:50;2.20;;;0.32;;
43345;SDS011;28937;51.160;4.146;2022-07-05T15:13:16;2.55;;;0.70;;
43345;SDS011;28937;51.160;4.146;2022-07-05T15:15:42;3.22;;;0.70;;
43345;SDS011;28937;51.160;4.146;2022-07-05T15:18:08;3.20;;;0.57;;
43345;SDS011;28937;51.160;4.146;2022-07-05T15:20:33;4.25;;;0.50;;
43345;SDS011;28937;51.160;4.146;2022-07-05T15:22:59;2.05;;;0.65;;
43345;SDS011;28937;51.160;4.146;2022-07-05T15:25:25;3.90;;;0.70;;
43345;SDS011;28937;51.160;4.146;2022-07-05T15:27:51;2.47;;;0.50;;